createdAt,value
2018-05-24T00:00:35.845Z,51.70
2018-05-24T00:04:38.364Z,51.30
2018-05-24T00:08:40.896Z,52.50
2018-05-24T00:12:43.429Z,51.70
2018-05-24T00:16:45.968Z,51.80
2018-05-24T00:20:48.500Z,52.50
2018-05-24T00:24:51.029Z,51.90
2018-05-24T00:28:53.564Z,51.60
2018-05-24T00:32:56.112Z,52.10
2018-05-24T00:36:58.652Z,51.10
2018-05-24T00:41:01.185Z,52.10
2018-05-24T00:45:03.704Z,52.40
2018-05-24T00:49:06.237Z,53.40
2018-05-24T00:53:08.778Z,52.80
2018-05-24T00:57:11.320Z,52.20
2018-05-24T01:01:13.848Z,52.40
2018-05-24T01:05:16.364Z,53.40
2018-05-24T01:09:18.973Z,52.30
2018-05-24T01:13:21.449Z,53.60
2018-05-24T01:17:23.976Z,52.70
2018-05-24T01:21:26.509Z,52.40
2018-05-24T01:25:29.024Z,52.90
2018-05-24T01:29:31.552Z,54.80
2018-05-24T01:33:34.080Z,53.20
2018-05-24T01:37:48.316Z,54.00
2018-05-24T01:41:50.852Z,53.10
2018-05-24T01:45:53.392Z,53.90
2018-05-24T01:49:55.908Z,53.50
2018-05-24T01:53:58.444Z,54.30
2018-05-24T01:58:00.977Z,54.10
2018-05-24T02:02:03.512Z,53.70
2018-05-24T02:06:06.812Z,54.30
2018-05-24T02:10:09.336Z,54.20
2018-05-24T02:14:11.881Z,55.40
2018-05-24T02:18:14.411Z,53.30
2018-05-24T02:22:16.941Z,54.60
2018-05-24T02:26:19.485Z,53.90
2018-05-24T02:30:22.001Z,54.20
2018-05-24T02:34:24.535Z,54.10
2018-05-24T02:38:27.074Z,54.20
2018-05-24T02:42:29.624Z,54.60
2018-05-24T02:46:32.162Z,55.20
2018-05-24T02:50:34.680Z,53.80
2018-05-24T02:54:37.227Z,56.30
2018-05-24T02:58:39.760Z,55.70
2018-05-24T03:02:43.071Z,55.80
2018-05-24T03:06:45.611Z,55.70
2018-05-24T03:10:48.128Z,58.30
2018-05-24T03:14:50.664Z,58.50
2018-05-24T03:18:53.969Z,55.60
2018-05-24T03:22:56.495Z,55.70
2018-05-24T03:26:59.028Z,56.10
2018-05-24T03:31:01.541Z,57.00
2018-05-24T03:35:04.072Z,57.00
2018-05-24T03:39:06.611Z,56.30
2018-05-24T03:43:09.147Z,56.00
2018-05-24T03:47:11.676Z,57.40
2018-05-24T03:51:14.188Z,55.50
2018-05-24T03:55:16.723Z,55.40
2018-05-24T04:04:20.514Z,57.20
2018-05-24T04:08:23.048Z,57.10
2018-05-24T04:12:25.585Z,55.50
2018-05-24T04:16:28.099Z,56.40
2018-05-24T04:20:30.633Z,58.20
2018-05-24T04:24:33.164Z,58.70
2018-05-24T04:28:35.695Z,56.50
2018-05-24T04:32:38.998Z,57.90
2018-05-24T04:36:42.276Z,58.40
2018-05-24T04:40:44.820Z,57.60
2018-05-24T04:44:47.372Z,55.20
2018-05-24T04:48:49.904Z,55.50
2018-05-24T04:52:52.444Z,56.80
2018-05-24T04:56:54.965Z,59.70
2018-05-24T05:00:57.502Z,58.80
2018-05-24T05:05:00.804Z,56.60
2018-05-24T05:09:03.343Z,56.00
2018-05-24T05:13:05.877Z,56.40
2018-05-24T05:17:08.394Z,56.30
2018-05-24T05:21:10.930Z,58.60
2018-05-24T05:25:13.569Z,56.40
2018-05-24T05:29:16.015Z,57.00
2018-05-24T05:33:18.543Z,56.80
2018-05-24T05:37:21.056Z,57.30
2018-05-24T05:41:23.592Z,58.40
2018-05-24T05:45:26.124Z,56.90
2018-05-24T05:49:28.655Z,58.30
2018-05-24T05:53:31.184Z,57.60
2018-05-24T05:57:33.695Z,57.90
2018-05-24T06:01:36.275Z,56.90
2018-05-24T06:05:38.771Z,56.40
2018-05-24T06:09:42.116Z,59.20
2018-05-24T06:13:44.684Z,59.00
2018-05-24T06:17:47.192Z,56.40
2018-05-24T06:21:49.699Z,56.90
2018-05-24T06:25:52.232Z,57.70
2018-05-24T06:29:54.763Z,56.40
2018-05-24T06:33:57.299Z,58.00
2018-05-24T06:37:59.845Z,56.80
2018-05-24T06:42:02.361Z,61.70
2018-05-24T06:46:04.896Z,56.10
2018-05-24T06:50:07.428Z,56.80
2018-05-24T06:54:10.724Z,59.10
2018-05-24T06:58:13.256Z,59.10
2018-05-24T07:02:15.780Z,57.70
2018-05-24T07:06:18.312Z,56.90
2018-05-24T07:10:20.847Z,55.90
2018-05-24T07:14:23.376Z,56.40
2018-05-24T07:18:25.914Z,56.50
2018-05-24T07:22:28.432Z,55.40
2018-05-24T07:26:30.972Z,58.40
2018-05-24T07:30:33.524Z,56.20
2018-05-24T07:34:36.392Z,56.80
2018-05-24T07:38:38.926Z,57.70
2018-05-24T07:42:41.445Z,56.60
2018-05-24T07:46:43.976Z,57.10
2018-05-24T07:50:46.500Z,56.30
2018-05-24T07:54:49.091Z,56.30
2018-05-24T07:58:51.588Z,57.50
2018-05-24T08:02:54.095Z,57.50
2018-05-24T08:06:56.631Z,59.30
2018-05-24T08:15:07.976Z,57.30
2018-05-24T08:19:10.509Z,56.10
2018-05-24T08:23:13.020Z,55.70
2018-05-24T08:27:15.553Z,57.10
2018-05-24T08:31:18.079Z,58.20
2018-05-24T08:35:20.615Z,55.70
2018-05-24T08:39:23.151Z,55.60
2018-05-24T08:43:25.677Z,55.90
2018-05-24T08:47:28.239Z,57.60
2018-05-24T08:51:30.760Z,56.90
2018-05-24T08:55:33.294Z,56.40
2018-05-24T08:59:35.828Z,57.10
2018-05-24T09:03:38.371Z,58.50
2018-05-24T09:07:40.885Z,57.30
2018-05-24T09:11:43.420Z,55.70
2018-05-24T09:15:45.953Z,56.20
2018-05-24T09:19:48.488Z,57.40
2018-05-24T09:23:51.024Z,57.20
2018-05-24T09:27:53.536Z,57.70
2018-05-24T09:31:56.064Z,56.70
2018-05-24T09:35:58.595Z,56.30
2018-05-24T09:40:01.129Z,56.20
2018-05-24T09:44:03.677Z,57.50
2018-05-24T09:48:06.207Z,56.00
2018-05-24T09:52:08.743Z,56.20
2018-05-24T09:56:11.276Z,57.50
2018-05-24T10:00:13.799Z,56.10
2018-05-24T10:04:16.332Z,56.20
2018-05-24T10:08:18.840Z,56.60
2018-05-24T10:12:21.371Z,57.00
2018-05-24T10:16:24.022Z,56.80
2018-05-24T10:20:27.219Z,56.40
2018-05-24T10:24:29.752Z,56.40
2018-05-24T10:28:32.276Z,56.30
2018-05-24T10:32:34.812Z,55.30
2018-05-24T10:36:37.344Z,55.40
2018-05-24T10:40:39.887Z,54.60
2018-05-24T10:44:42.419Z,54.70
2018-05-24T10:48:44.932Z,54.60
2018-05-24T10:52:47.471Z,54.60
2018-05-24T10:56:50.024Z,54.60
2018-05-24T11:00:52.566Z,54.70
2018-05-24T11:04:55.098Z,54.40
2018-05-24T11:08:57.616Z,54.60
2018-05-24T11:13:00.159Z,54.70
2018-05-24T11:17:02.704Z,55.00
2018-05-24T11:21:05.259Z,54.80
2018-05-24T11:25:07.843Z,54.90
2018-05-24T11:29:10.346Z,54.90
2018-05-24T11:33:12.883Z,54.90
2018-05-24T11:37:15.518Z,54.80
2018-05-24T11:41:17.990Z,54.80
2018-05-24T11:45:20.545Z,55.00
2018-05-24T11:49:23.088Z,54.90
2018-05-24T11:53:25.604Z,55.00
2018-05-24T11:57:28.139Z,55.10
2018-05-24T12:01:30.688Z,55.40
2018-05-24T12:05:33.230Z,55.50
2018-05-24T12:09:36.525Z,55.40
2018-05-24T12:13:39.814Z,55.30
2018-05-24T12:17:42.367Z,55.30
2018-05-24T12:21:44.909Z,55.40
2018-05-24T12:25:47.452Z,55.20
2018-05-24T12:29:49.978Z,55.80
2018-05-24T12:33:52.491Z,55.30
2018-05-24T12:37:55.021Z,55.50
2018-05-24T12:41:57.615Z,55.40
2018-05-24T12:46:00.128Z,55.40
2018-05-24T12:50:02.681Z,55.80
2018-05-24T12:54:05.205Z,55.50
2018-05-24T12:58:07.760Z,55.60
2018-05-24T13:02:11.065Z,56.30
2018-05-24T13:06:13.605Z,56.60
2018-05-24T13:10:16.144Z,56.20
2018-05-24T13:14:18.668Z,56.30
2018-05-24T13:18:21.207Z,56.80
2018-05-24T13:22:24.500Z,57.20
2018-05-24T13:26:27.032Z,57.30
2018-05-24T13:30:29.572Z,57.00
2018-05-24T13:34:32.179Z,56.60
2018-05-24T13:38:34.640Z,56.60
2018-05-24T13:42:37.203Z,58.30
2018-05-24T13:46:39.737Z,56.60
2018-05-24T13:50:42.275Z,56.60
2018-05-24T13:54:44.790Z,57.30
2018-05-24T13:58:47.319Z,57.50
2018-05-24T14:02:49.852Z,57.70
2018-05-24T14:06:53.151Z,57.50
2018-05-24T14:10:55.703Z,57.50
2018-05-24T14:14:58.230Z,57.40
2018-05-24T14:19:00.770Z,57.10
2018-05-24T14:23:03.303Z,57.70
2018-05-24T14:27:05.851Z,57.10
2018-05-24T14:31:08.387Z,57.10
2018-05-24T14:35:10.909Z,58.50
2018-05-24T14:39:13.451Z,56.70
2018-05-24T14:43:15.979Z,58.20
2018-05-24T14:47:18.520Z,57.10
2018-05-24T14:51:21.051Z,56.80
2018-05-24T14:55:23.596Z,59.90
2018-05-24T14:59:26.107Z,57.80
2018-05-24T15:03:28.643Z,57.60
2018-05-24T15:07:31.190Z,57.30
2018-05-24T15:11:33.730Z,57.50
2018-05-24T15:15:36.264Z,57.00
2018-05-24T15:19:38.771Z,57.60
2018-05-24T15:23:41.313Z,58.00
2018-05-24T15:27:43.856Z,57.10
2018-05-24T15:31:47.159Z,57.10
2018-05-24T15:35:49.682Z,57.10
2018-05-24T15:39:52.200Z,57.20
2018-05-24T15:43:54.733Z,57.40
2018-05-24T15:47:57.268Z,57.10
2018-05-24T15:51:59.808Z,57.50
2018-05-24T15:56:02.343Z,57.70
2018-05-24T16:00:04.860Z,57.10
2018-05-24T16:04:07.404Z,58.20
2018-05-24T16:08:09.945Z,57.70
2018-05-24T16:12:12.479Z,57.70
2018-05-24T16:16:15.012Z,58.40
2018-05-24T16:20:17.533Z,57.50
2018-05-24T16:24:20.068Z,58.00
2018-05-24T16:28:22.608Z,60.90
2018-05-24T16:32:25.139Z,57.50
2018-05-24T16:36:27.672Z,58.90
2018-05-24T16:40:30.187Z,57.40
2018-05-24T16:44:33.491Z,57.80
2018-05-24T16:48:36.809Z,58.10
2018-05-24T16:52:39.348Z,58.20
2018-05-24T16:56:41.895Z,57.80
2018-05-24T17:00:44.419Z,57.50
2018-05-24T17:04:46.952Z,57.60
2018-05-24T17:08:49.493Z,58.10
2018-05-24T17:12:52.031Z,58.10
2018-05-24T17:16:54.578Z,58.00
2018-05-24T17:20:57.100Z,57.90
2018-05-24T17:24:59.649Z,58.90
2018-05-24T17:29:02.192Z,58.90
2018-05-24T17:33:04.728Z,58.60
2018-05-24T17:37:07.264Z,58.60
2018-05-24T17:41:09.799Z,58.20
2018-05-24T17:45:12.342Z,58.40
2018-05-24T17:49:14.888Z,58.80
2018-05-24T17:53:17.421Z,59.70
2018-05-24T17:57:19.962Z,59.40
2018-05-24T18:01:22.509Z,60.00
2018-05-24T18:05:25.032Z,58.10
2018-05-24T18:09:27.614Z,58.70
2018-05-24T18:13:30.124Z,60.00
2018-05-24T18:17:32.660Z,59.10
2018-05-24T18:21:35.200Z,59.30
2018-05-24T18:25:37.724Z,59.50
2018-05-24T18:29:40.255Z,59.70
2018-05-24T18:33:42.792Z,59.60
2018-05-24T18:37:45.329Z,59.70
2018-05-24T18:41:47.879Z,61.00
2018-05-24T18:45:50.395Z,60.20
2018-05-24T18:49:52.936Z,59.70
2018-05-24T18:53:55.472Z,59.70
2018-05-24T18:57:58.011Z,58.80
2018-05-24T19:02:00.627Z,59.70
2018-05-24T19:06:03.080Z,60.00
2018-05-24T19:10:06.387Z,59.40
2018-05-24T19:14:08.928Z,59.50
2018-05-24T19:18:11.473Z,59.30
2018-05-24T19:22:14.007Z,59.70
2018-05-24T19:26:16.519Z,59.00
2018-05-24T19:30:19.812Z,59.30
2018-05-24T19:34:22.343Z,59.30
2018-05-24T19:38:24.871Z,60.10
2018-05-24T19:42:27.412Z,59.70
2018-05-24T19:46:29.932Z,59.60
2018-05-24T19:50:32.468Z,59.80
2018-05-24T19:54:34.999Z,59.80
2018-05-24T19:58:37.533Z,59.60
2018-05-24T20:02:40.068Z,59.80
2018-05-24T20:06:42.580Z,59.80
2018-05-24T20:10:45.120Z,59.90
2018-05-24T20:14:47.670Z,59.50
2018-05-24T20:18:50.203Z,60.40
2018-05-24T20:22:52.807Z,60.70
2018-05-24T20:26:55.279Z,60.50
2018-05-24T20:30:57.819Z,60.70
2018-05-24T20:35:00.352Z,60.90
2018-05-24T20:39:02.901Z,61.90
2018-05-24T20:43:05.444Z,62.20
2018-05-24T20:47:07.980Z,63.30
2018-05-24T20:51:10.503Z,61.70
2018-05-24T20:55:13.040Z,61.80
2018-05-24T20:59:16.344Z,60.60
2018-05-24T21:03:18.884Z,60.70
2018-05-24T21:07:21.442Z,62.10
2018-05-24T21:11:23.960Z,62.10
2018-05-24T21:15:27.264Z,61.10
2018-05-24T21:19:30.569Z,61.60
2018-05-24T21:23:33.112Z,61.50
2018-05-24T21:27:35.656Z,61.60
2018-05-24T21:31:38.180Z,61.60
2018-05-24T21:35:40.715Z,61.30
2018-05-24T21:39:43.261Z,62.40
2018-05-24T21:43:45.807Z,61.30
2018-05-24T21:47:48.345Z,62.30
2018-05-24T21:51:50.876Z,62.60
2018-05-24T21:55:53.423Z,62.50
2018-05-24T21:59:55.964Z,61.50
2018-05-24T22:03:58.499Z,63.70
2018-05-24T22:08:01.808Z,62.50
2018-05-24T22:12:05.097Z,62.40
2018-05-24T22:16:07.654Z,62.40
2018-05-24T22:20:10.212Z,62.70
2018-05-24T22:24:12.751Z,62.10
2018-05-24T22:28:15.287Z,62.40
2018-05-24T22:32:17.807Z,62.30
2018-05-24T22:36:20.347Z,62.50
2018-05-24T22:40:22.884Z,63.00
2018-05-24T22:44:25.416Z,62.30
2018-05-24T22:48:27.960Z,62.90
2018-05-24T22:52:30.484Z,62.50
2018-05-24T22:56:33.024Z,63.50
2018-05-24T23:00:35.564Z,62.70
2018-05-24T23:04:38.113Z,62.30
2018-05-24T23:08:40.651Z,61.80
2018-05-24T23:12:43.182Z,63.20
2018-05-24T23:16:45.724Z,62.70
2018-05-24T23:20:48.269Z,63.40
2018-05-24T23:24:50.811Z,62.50
2018-05-24T23:28:53.355Z,62.90
2018-05-24T23:32:55.892Z,63.20
2018-05-24T23:36:58.404Z,62.60
2018-05-24T23:41:00.941Z,62.80
2018-05-24T23:45:03.484Z,63.30
2018-05-24T23:53:14.796Z,63.10
2018-05-24T23:57:17.307Z,63.10
